Time;durP1;ratioP1;P1;durP2;ratioP2;P2;SDS_P1;SDS_P2;PMS_P1;PMS_P2;Temp;Humidity;BMP_temperature;BMP_pressure;BME280_temperature;BME280_humidity;BME280_pressure;Samples;Min_cycle;Max_cycle;Signal;HPM_P1;HPM_P2
2022/01/25 00:26:03;;;;;;;;;;;4.00;99.90;;;;;;5054154;28;19920;-45
2022/01/25 00:33:26;;;;;;;;;;;4.00;99.90;;;;;;5070583;28;20299;-44
2022/01/25 00:35:52;;;;;;;;;;;4.00;99.90;;;;;;5068145;28;20035;-45
2022/01/25 00:38:17;;;;;;;;;;;4.00;99.90;;;;;;5086658;28;20015;-45
2022/01/25 00:40:43;;;;;;;;;;;4.00;99.90;;;;;;5069052;28;19917;-45
2022/01/25 00:43:09;;;;;;;;;;;4.00;99.90;;;;;;5085036;28;19924;-44
2022/01/25 00:45:35;;;;;;;;;;;4.00;99.90;;;;;;5067668;28;19927;-44
2022/01/25 00:48:03;;;;;;;;;;;4.00;99.90;;;;;;5068462;28;20371;-45
2022/01/25 00:50:37;;;;;;;;;;;4.00;99.90;;;;;;5068767;28;19916;-44
2022/01/25 00:55:31;;;;;;;;;;;3.90;99.90;;;;;;5069688;28;19921;-44
2022/01/25 00:57:57;;;;;;;;;;;3.90;99.90;;;;;;5044009;28;19923;-44
2022/01/25 01:00:23;;;;;;;;;;;3.90;99.90;;;;;;5050963;28;20397;-45
2022/01/25 01:02:49;;;;;;;;;;;3.90;99.90;;;;;;5052900;28;19945;-45
2022/01/25 01:05:15;;;;;;;;;;;3.90;99.90;;;;;;5070788;28;20041;-44
2022/01/25 01:07:42;;;;;;;;;;;3.90;99.90;;;;;;5068007;28;19928;-44
2022/01/25 01:10:08;;;;;;;;;;;3.90;99.90;;;;;;5067087;28;19924;-45
2022/01/25 01:15:29;;;;;;;;;;;3.90;99.90;;;;;;5072436;28;19924;-44
2022/01/25 01:29:24;;;;;;;;;;;3.90;99.90;;;;;;5068855;28;20041;-45
2022/01/25 01:35:04;;;;;;;;;;;3.90;99.90;;;;;;5044576;28;19966;-45
2022/01/25 01:37:49;;;;;;;;;;;3.90;99.90;;;;;;5084968;28;19999;-45
2022/01/25 01:45:35;;;;;;;;;;;3.90;99.90;;;;;;5069486;28;19916;-45
2022/01/25 01:48:08;;;;;;;;;;;3.90;99.90;;;;;;5069741;28;19927;-46
2022/01/25 01:50:36;;;;;;;;;;;3.90;99.90;;;;;;5061506;28;19916;-45
2022/01/25 01:53:03;;;;;;;;;;;3.90;99.90;;;;;;5048001;28;20507;-44
2022/01/25 01:55:30;;;;;;;;;;;3.90;99.90;;;;;;5049219;28;19916;-45
2022/01/25 01:57:57;;;;;;;;;;;3.90;99.90;;;;;;5066207;28;19920;-44
2022/01/25 02:00:25;;;;;;;;;;;3.90;99.90;;;;;;5070282;28;19923;-45
2022/01/25 02:02:51;;;;;;;;;;;3.90;99.90;;;;;;5047853;28;19962;-44
2022/01/25 02:05:17;;;;;;;;;;;3.90;99.90;;;;;;5061769;28;19924;-44
2022/01/25 02:07:43;;;;;;;;;;;3.90;99.90;;;;;;5063517;28;20324;-44
2022/01/25 02:10:09;;;;;;;;;;;3.80;99.90;;;;;;5069796;28;20045;-44
2022/01/25 02:12:35;;;;;;;;;;;3.90;99.90;;;;;;5080265;28;20359;-45
2022/01/25 02:15:02;;;;;;;;;;;3.90;99.90;;;;;;5080753;28;19921;-45
2022/01/25 02:22:53;;;;;;;;;;;3.80;99.90;;;;;;5069045;28;19917;-44
2022/01/25 02:25:19;;;;;;;;;;;3.90;99.90;;;;;;5050459;28;19924;-46
2022/01/25 02:27:45;;;;;;;;;;;3.80;99.90;;;;;;5065606;28;19954;-46
2022/01/25 02:30:11;;;;;;;;;;;3.90;99.90;;;;;;5065527;28;19923;-44
2022/01/25 02:32:37;;;;;;;;;;;3.90;99.90;;;;;;5063939;28;20248;-44
2022/01/25 02:35:03;;;;;;;;;;;3.90;99.90;;;;;;5047524;28;19928;-45
2022/01/25 02:37:29;;;;;;;;;;;3.90;99.90;;;;;;5082825;28;20008;-45
2022/01/25 02:39:54;;;;;;;;;;;3.90;99.90;;;;;;5051282;28;20002;-44
2022/01/25 02:42:20;;;;;;;;;;;3.80;99.90;;;;;;5068275;28;19995;-45
2022/01/25 02:44:47;;;;;;;;;;;3.90;99.90;;;;;;5052079;28;19916;-44
2022/01/25 02:49:57;;;;;;;;;;;3.90;99.90;;;;;;5083819;28;19989;-44
2022/01/25 02:52:23;;;;;;;;;;;3.80;99.90;;;;;;5061497;28;21377;-44
2022/01/25 02:54:49;;;;;;;;;;;3.80;99.90;;;;;;5051865;28;19928;-45
2022/01/25 02:57:15;;;;;;;;;;;3.80;99.90;;;;;;5064819;28;20322;-46
2022/01/25 02:59:41;;;;;;;;;;;3.80;99.90;;;;;;5031437;28;19916;-44
2022/01/25 03:02:07;;;;;;;;;;;3.80;99.90;;;;;;5067900;28;19940;-46
2022/01/25 03:04:32;;;;;;;;;;;3.90;99.90;;;;;;5049517;28;20283;-45
2022/01/25 03:06:58;;;;;;;;;;;3.90;99.90;;;;;;5049279;28;20322;-44
2022/01/25 03:09:24;;;;;;;;;;;3.80;99.90;;;;;;5059882;28;20197;-44
2022/01/25 03:11:53;;;;;;;;;;;3.90;99.90;;;;;;5034999;28;19916;-45
2022/01/25 03:14:21;;;;;;;;;;;3.80;99.90;;;;;;5049981;28;19948;-45
2022/01/25 03:17:03;;;;;;;;;;;3.80;99.90;;;;;;5067230;28;19927;-45
2022/01/25 03:24:52;;;;;;;;;;;3.80;99.90;;;;;;5065984;28;19925;-44
2022/01/25 03:27:18;;;;;;;;;;;3.90;99.90;;;;;;5069946;28;19923;-44
2022/01/25 03:29:44;;;;;;;;;;;3.80;99.90;;;;;;5058213;28;19923;-45
2022/01/25 03:32:09;;;;;;;;;;;3.80;99.90;;;;;;5066189;28;19916;-44
2022/01/25 03:34:35;;;;;;;;;;;3.80;99.90;;;;;;5045346;28;20647;-45
2022/01/25 03:37:01;;;;;;;;;;;3.80;99.90;;;;;;5048996;28;19923;-45
2022/01/25 03:39:27;;;;;;;;;;;3.80;99.90;;;;;;5080240;28;19925;-45
2022/01/25 03:41:54;;;;;;;;;;;3.80;99.90;;;;;;5035621;28;19923;-45
2022/01/25 03:44:19;;;;;;;;;;;3.80;99.90;;;;;;5047757;28;20303;-46
2022/01/25 03:51:58;;;;;;;;;;;3.80;99.90;;;;;;5073106;28;19967;-46
2022/01/25 03:54:23;;;;;;;;;;;3.80;99.90;;;;;;5086318;28;19963;-45
2022/01/25 03:56:49;;;;;;;;;;;3.80;99.90;;;;;;5090291;28;20270;-45
2022/01/25 03:59:15;;;;;;;;;;;3.80;99.90;;;;;;5062954;28;19917;-44
2022/01/25 04:01:41;;;;;;;;;;;3.80;99.90;;;;;;5088190;28;20007;-44
2022/01/25 04:04:11;;;;;;;;;;;3.80;99.90;;;;;;5049533;28;19927;-45
2022/01/25 04:06:37;;;;;;;;;;;3.80;99.90;;;;;;5086951;28;19917;-44
2022/01/25 04:09:05;;;;;;;;;;;3.80;99.90;;;;;;5069588;28;19964;-44
2022/01/25 04:11:31;;;;;;;;;;;3.80;99.90;;;;;;5073259;28;19942;-45
2022/01/25 04:13:58;;;;;;;;;;;3.80;99.90;;;;;;5087623;28;20406;-46
2022/01/25 04:16:32;;;;;;;;;;;3.80;99.90;;;;;;5088408;28;19916;-46
2022/01/25 04:26:46;;;;;;;;;;;3.80;99.90;;;;;;5069787;28;19915;-45
2022/01/25 04:29:12;;;;;;;;;;;3.80;99.90;;;;;;5088749;28;20278;-45
2022/01/25 04:31:38;;;;;;;;;;;3.80;99.90;;;;;;5088987;28;19923;-45
2022/01/25 04:50:09;;;;;;;;;;;3.80;99.90;;;;;;5034821;28;19924;-45
2022/01/25 04:52:47;;;;;;;;;;;3.80;99.90;;;;;;5068233;28;20004;-45
2022/01/25 04:55:21;;;;;;;;;;;3.80;99.90;;;;;;5048886;28;20358;-46
2022/01/25 04:57:59;;;;;;;;;;;3.80;99.90;;;;;;5031730;28;20401;-44
2022/01/25 05:00:26;;;;;;;;;;;3.90;99.90;;;;;;5063403;28;20003;-46
2022/01/25 05:03:05;;;;;;;;;;;3.80;99.90;;;;;;5047192;28;19920;-45
2022/01/25 05:05:39;;;;;;;;;;;3.80;99.90;;;;;;5071304;28;19920;-45
2022/01/25 05:08:29;;;;;;;;;;;3.80;99.90;;;;;;5068925;28;19924;-45
2022/01/25 05:11:41;;;;;;;;;;;3.80;99.90;;;;;;5068569;28;20282;-45
2022/01/25 05:13:51;;;;;;;;;;;3.80;99.90;;;;;;5069653;28;20043;-46
2022/01/25 05:24:15;;;;;;;;;;;3.80;99.90;;;;;;5073980;28;19956;-45
2022/01/25 05:26:41;;;;;;;;;;;3.80;99.90;;;;;;5085383;28;19955;-47
2022/01/25 05:29:07;;;;;;;;;;;3.80;99.90;;;;;;5051364;28;20289;-45
2022/01/25 05:31:33;;;;;;;;;;;3.80;99.90;;;;;;5069151;28;20090;-45
2022/01/25 05:33:59;;;;;;;;;;;3.80;99.90;;;;;;5054519;28;19920;-45
2022/01/25 05:36:25;;;;;;;;;;;3.80;99.90;;;;;;5057757;28;19917;-45
2022/01/25 05:38:51;;;;;;;;;;;3.80;99.90;;;;;;5082847;28;20542;-45
2022/01/25 05:41:17;;;;;;;;;;;3.80;99.90;;;;;;5051945;28;20006;-45
2022/01/25 05:46:33;;;;;;;;;;;3.80;99.90;;;;;;5078792;28;19962;-45
2022/01/25 05:48:59;;;;;;;;;;;3.80;99.90;;;;;;5086126;28;20309;-45
2022/01/25 05:51:25;;;;;;;;;;;3.80;99.90;;;;;;5066320;28;19936;-46
2022/01/25 05:53:51;;;;;;;;;;;3.80;99.90;;;;;;5062034;28;19970;-44
2022/01/25 05:56:17;;;;;;;;;;;3.80;99.90;;;;;;5067874;28;19927;-44
2022/01/25 05:58:43;;;;;;;;;;;3.90;99.90;;;;;;5050608;28;19920;-45
2022/01/25 06:01:09;;;;;;;;;;;3.90;99.90;;;;;;5082770;28;19916;-46
2022/01/25 06:03:35;;;;;;;;;;;3.90;99.90;;;;;;5033346;28;19985;-45
2022/01/25 06:06:01;;;;;;;;;;;3.90;99.90;;;;;;5031654;28;19916;-44
2022/01/25 06:08:27;;;;;;;;;;;3.80;99.90;;;;;;5052372;28;20441;-45
2022/01/25 06:10:52;;;;;;;;;;;3.90;99.90;;;;;;5069903;28;20015;-44
2022/01/25 06:13:19;;;;;;;;;;;3.90;99.90;;;;;;5052450;28;19939;-48
2022/01/25 06:15:45;;;;;;;;;;;3.90;99.90;;;;;;5050335;28;19924;-46
2022/01/25 06:18:11;;;;;;;;;;;3.90;99.90;;;;;;5051520;28;19920;-46
2022/01/25 06:20:36;;;;;;;;;;;3.90;99.90;;;;;;5047808;28;19963;-44
2022/01/25 06:23:02;;;;;;;;;;;4.00;99.90;;;;;;5064010;28;19924;-45
2022/01/25 06:25:28;;;;;;;;;;;3.90;99.90;;;;;;5064698;28;19962;-45
2022/01/25 06:27:53;;;;;;;;;;;3.90;99.90;;;;;;5068349;28;19925;-45
2022/01/25 06:30:20;;;;;;;;;;;3.90;99.90;;;;;;5081781;28;19965;-45
2022/01/25 06:32:46;;;;;;;;;;;3.80;99.90;;;;;;5045184;28;19927;-44
2022/01/25 06:35:13;;;;;;;;;;;3.90;99.90;;;;;;5051024;28;19920;-45
2022/01/25 06:37:39;;;;;;;;;;;3.90;99.90;;;;;;5051797;28;20312;-46
2022/01/25 06:40:05;;;;;;;;;;;4.00;99.90;;;;;;5067424;28;19930;-45
2022/01/25 06:42:31;;;;;;;;;;;3.90;99.90;;;;;;5050919;28;19926;-44
2022/01/25 06:45:01;;;;;;;;;;;3.90;99.90;;;;;;5068247;28;19920;-44
2022/01/25 06:47:26;;;;;;;;;;;3.90;99.90;;;;;;5045556;28;20048;-44
2022/01/25 06:49:53;;;;;;;;;;;4.00;99.90;;;;;;5045103;28;20002;-44
2022/01/25 06:52:19;;;;;;;;;;;3.90;99.90;;;;;;5049569;28;19916;-45
2022/01/25 06:54:45;;;;;;;;;;;3.90;99.90;;;;;;5067484;28;20378;-46
2022/01/25 06:57:11;;;;;;;;;;;4.00;99.90;;;;;;5056796;28;19924;-45
2022/01/25 06:59:37;;;;;;;;;;;3.90;99.90;;;;;;5047606;28;19932;-45
2022/01/25 07:02:03;;;;;;;;;;;4.00;99.90;;;;;;5065323;28;19924;-45
2022/01/25 07:04:29;;;;;;;;;;;4.00;99.90;;;;;;5033003;28;19962;-45
2022/01/25 07:06:54;;;;;;;;;;;4.00;99.90;;;;;;5062049;28;19979;-45
2022/01/25 07:09:20;;;;;;;;;;;4.00;99.90;;;;;;5069017;28;19916;-45
2022/01/25 07:11:46;;;;;;;;;;;4.00;99.90;;;;;;5033013;28;19991;-44
2022/01/25 07:14:12;;;;;;;;;;;4.00;99.90;;;;;;5033730;28;20031;-44
2022/01/25 07:16:38;;;;;;;;;;;4.00;99.90;;;;;;5062984;28;19916;-45
2022/01/25 07:19:03;;;;;;;;;;;4.00;99.90;;;;;;5047621;28;20281;-45
2022/01/25 07:21:29;;;;;;;;;;;4.00;99.90;;;;;;5064373;28;19946;-44
2022/01/25 07:23:55;;;;;;;;;;;4.00;99.90;;;;;;5057232;28;19934;-44
2022/01/25 07:26:21;;;;;;;;;;;4.00;99.90;;;;;;5048471;28;20313;-45
2022/01/25 07:28:47;;;;;;;;;;;4.00;99.90;;;;;;5080861;28;19924;-47
2022/01/25 07:31:12;;;;;;;;;;;4.00;99.90;;;;;;5048960;28;19916;-45
2022/01/25 07:33:38;;;;;;;;;;;4.00;99.90;;;;;;5032650;28;20049;-46
2022/01/25 07:36:05;;;;;;;;;;;4.00;99.90;;;;;;5068023;28;20347;-45
2022/01/25 07:38:31;;;;;;;;;;;4.00;99.90;;;;;;5066285;28;20675;-44
2022/01/25 07:40:57;;;;;;;;;;;4.00;99.90;;;;;;5068172;28;19924;-44
2022/01/25 07:43:23;;;;;;;;;;;4.00;99.90;;;;;;5048373;28;19975;-45
2022/01/25 07:45:53;;;;;;;;;;;4.00;99.90;;;;;;5066753;28;19963;-45
2022/01/25 07:48:20;;;;;;;;;;;4.00;99.90;;;;;;5069980;28;19931;-46
2022/01/25 07:50:45;;;;;;;;;;;4.00;99.90;;;;;;5048257;28;19967;-45
2022/01/25 07:53:11;;;;;;;;;;;4.00;99.90;;;;;;5057019;28;20358;-45
2022/01/25 07:55:37;;;;;;;;;;;4.00;99.90;;;;;;5059216;28;19920;-44
2022/01/25 07:58:03;;;;;;;;;;;4.00;99.90;;;;;;5045308;28;19916;-49
2022/01/25 08:00:29;;;;;;;;;;;4.00;99.90;;;;;;5047939;28;19925;-44
2022/01/25 08:02:55;;;;;;;;;;;4.00;99.90;;;;;;5083776;28;19923;-45
2022/01/25 08:05:21;;;;;;;;;;;4.00;99.90;;;;;;5046985;28;19924;-45
2022/01/25 08:07:47;;;;;;;;;;;4.00;99.90;;;;;;5067648;28;19916;-48
2022/01/25 08:10:13;;;;;;;;;;;4.00;99.90;;;;;;5048298;28;19917;-45
2022/01/25 08:12:39;;;;;;;;;;;4.00;99.90;;;;;;5065743;28;19923;-47
2022/01/25 08:15:06;;;;;;;;;;;4.00;99.90;;;;;;5048592;28;19942;-45
2022/01/25 08:17:32;;;;;;;;;;;4.00;99.90;;;;;;5069385;28;19923;-45
2022/01/25 08:19:58;;;;;;;;;;;4.10;99.90;;;;;;5045054;28;19916;-46
2022/01/25 08:22:24;;;;;;;;;;;4.10;99.90;;;;;;5062335;28;20383;-44
2022/01/25 08:24:50;;;;;;;;;;;4.10;99.90;;;;;;5048663;28;19982;-44
2022/01/25 08:27:20;;;;;;;;;;;4.10;99.90;;;;;;5068420;28;19916;-48
2022/01/25 08:29:46;;;;;;;;;;;4.10;99.90;;;;;;5070027;28;20023;-44
2022/01/25 08:32:12;;;;;;;;;;;4.10;99.90;;;;;;5049876;28;20337;-44
2022/01/25 08:34:37;;;;;;;;;;;4.10;99.90;;;;;;5059679;28;19935;-44
2022/01/25 08:37:03;;;;;;;;;;;4.10;99.90;;;;;;5049822;28;20058;-44
2022/01/25 08:39:29;;;;;;;;;;;4.10;99.90;;;;;;5031605;28;19923;-44
2022/01/25 08:41:55;;;;;;;;;;;4.10;99.90;;;;;;5049560;28;20003;-46
2022/01/25 08:44:21;;;;;;;;;;;4.10;99.90;;;;;;5075268;28;20327;-45
2022/01/25 08:46:46;;;;;;;;;;;4.10;99.90;;;;;;5064578;28;19920;-45
2022/01/25 08:49:12;;;;;;;;;;;4.10;99.90;;;;;;5050586;28;19962;-45
2022/01/25 08:51:38;;;;;;;;;;;4.10;99.90;;;;;;5066815;28;19971;-45
2022/01/25 08:54:05;;;;;;;;;;;4.10;99.90;;;;;;5048519;28;19999;-44
2022/01/25 08:56:31;;;;;;;;;;;4.10;99.90;;;;;;5065655;28;20171;-46
2022/01/25 08:58:57;;;;;;;;;;;4.10;99.90;;;;;;5070361;28;20220;-45
2022/01/25 09:01:22;;;;;;;;;;;4.10;99.90;;;;;;5050613;28;19975;-45
2022/01/25 09:03:49;;;;;;;;;;;4.10;99.90;;;;;;5054269;28;19968;-46
2022/01/25 09:06:15;;;;;;;;;;;4.10;99.90;;;;;;5069098;28;20323;-44
2022/01/25 09:08:40;;;;;;;;;;;4.10;99.90;;;;;;5081888;28;19979;-44
2022/01/25 09:11:07;;;;;;;;;;;4.10;99.90;;;;;;5053667;28;20381;-45
2022/01/25 09:13:33;;;;;;;;;;;4.10;99.90;;;;;;5069066;28;19921;-45
2022/01/25 09:15:59;;;;;;;;;;;4.10;99.90;;;;;;5048852;28;19974;-45
2022/01/25 09:18:26;;;;;;;;;;;4.20;99.90;;;;;;5051022;28;19923;-45
2022/01/25 09:20:52;;;;;;;;;;;4.10;99.90;;;;;;5063376;28;19916;-45
2022/01/25 09:23:19;;;;;;;;;;;4.10;99.90;;;;;;5033863;28;19917;-46
2022/01/25 09:25:48;;;;;;;;;;;4.10;99.90;;;;;;5088855;28;20096;-46
2022/01/25 09:28:15;;;;;;;;;;;4.10;99.90;;;;;;5070210;28;20551;-45
2022/01/25 09:30:40;;;;;;;;;;;4.10;99.90;;;;;;5052640;28;19916;-45
2022/01/25 09:33:06;;;;;;;;;;;4.10;99.90;;;;;;5067651;28;20366;-45
2022/01/25 09:35:32;;;;;;;;;;;4.10;99.90;;;;;;5052766;28;19923;-44
2022/01/25 09:37:58;;;;;;;;;;;4.20;99.90;;;;;;5070487;28;19998;-46
2022/01/25 09:40:24;;;;;;;;;;;4.20;99.90;;;;;;5066876;28;20521;-45
2022/01/25 09:42:54;;;;;;;;;;;4.10;99.90;;;;;;5062771;28;19917;-46
2022/01/25 09:45:20;;;;;;;;;;;4.20;99.90;;;;;;5049187;28;20327;-44
2022/01/25 09:47:46;;;;;;;;;;;4.20;99.90;;;;;;5071146;28;19916;-44
2022/01/25 09:50:12;;;;;;;;;;;4.20;99.90;;;;;;5069568;28;19916;-46
2022/01/25 09:52:39;;;;;;;;;;;4.20;99.90;;;;;;5051996;28;19916;-44
2022/01/25 09:55:08;;;;;;;;;;;4.20;99.90;;;;;;5068452;28;19931;-44
2022/01/25 09:57:35;;;;;;;;;;;4.20;99.90;;;;;;5068308;28;19995;-44
2022/01/25 10:00:00;;;;;;;;;;;4.20;99.90;;;;;;5061480;28;20722;-45
2022/01/25 10:02:37;;;;;;;;;;;4.20;99.90;;;;;;5048738;28;20043;-46
2022/01/25 10:05:16;;;;;;;;;;;4.20;99.90;;;;;;5081968;28;19920;-45
2022/01/25 10:07:42;;;;;;;;;;;4.20;99.90;;;;;;5080200;28;19924;-45
2022/01/25 10:10:08;;;;;;;;;;;4.20;99.90;;;;;;5049876;28;19985;-45
2022/01/25 10:12:34;;;;;;;;;;;4.30;99.90;;;;;;5082936;28;19920;-44
2022/01/25 10:14:59;;;;;;;;;;;4.30;99.90;;;;;;5038859;28;19986;-44
2022/01/25 10:17:33;;;;;;;;;;;4.30;99.90;;;;;;5048695;28;20449;-45
2022/01/25 10:19:59;;;;;;;;;;;4.30;99.90;;;;;;5069703;28;19924;-45
2022/01/25 10:22:25;;;;;;;;;;;4.30;99.90;;;;;;5064167;28;19917;-45
2022/01/25 10:24:51;;;;;;;;;;;4.30;99.90;;;;;;5035957;28;19920;-44
2022/01/25 10:27:21;;;;;;;;;;;4.30;99.90;;;;;;5076232;28;20038;-45
2022/01/25 10:29:47;;;;;;;;;;;4.30;99.90;;;;;;5067962;28;20255;-44
2022/01/25 10:32:15;;;;;;;;;;;4.30;99.90;;;;;;5067747;28;19995;-46
2022/01/25 10:34:46;;;;;;;;;;;4.30;99.90;;;;;;5080367;28;19928;-45
2022/01/25 10:37:14;;;;;;;;;;;4.30;99.90;;;;;;5068613;28;19962;-45
2022/01/25 10:39:41;;;;;;;;;;;4.40;99.90;;;;;;5044803;28;20374;-45
2022/01/25 10:42:26;;;;;;;;;;;4.40;99.90;;;;;;5069165;28;19978;-46
2022/01/25 10:45:06;;;;;;;;;;;4.40;99.90;;;;;;5081830;28;19958;-46
2022/01/25 10:47:38;;;;;;;;;;;4.40;99.90;;;;;;5082487;28;19974;-45
2022/01/25 10:50:19;;;;;;;;;;;4.40;99.90;;;;;;5047952;28;19916;-44
2022/01/25 10:52:46;;;;;;;;;;;4.40;99.90;;;;;;5032535;28;19924;-44
2022/01/25 10:55:13;;;;;;;;;;;4.40;99.90;;;;;;5053615;28;20156;-45
2022/01/25 10:57:40;;;;;;;;;;;4.40;99.90;;;;;;5063399;28;19962;-44
2022/01/25 11:00:10;;;;;;;;;;;4.40;99.90;;;;;;5066859;28;20290;-44
2022/01/25 11:02:47;;;;;;;;;;;4.40;99.90;;;;;;5067575;28;19919;-46
2022/01/25 11:05:13;;;;;;;;;;;4.40;99.90;;;;;;5068524;28;19916;-44
2022/01/25 11:07:40;;;;;;;;;;;4.40;99.90;;;;;;5067637;28;19926;-45
2022/01/25 11:10:06;;;;;;;;;;;4.40;99.90;;;;;;5050443;28;19923;-45
2022/01/25 11:12:39;;;;;;;;;;;4.40;99.90;;;;;;5045417;28;20045;-44
2022/01/25 11:15:06;;;;;;;;;;;4.40;99.90;;;;;;5051075;28;19924;-45
2022/01/25 11:17:32;;;;;;;;;;;4.40;99.90;;;;;;5050888;28;20001;-45
2022/01/25 11:19:59;;;;;;;;;;;4.40;99.90;;;;;;5066493;28;19922;-47
2022/01/25 11:22:25;;;;;;;;;;;4.40;99.90;;;;;;5056915;28;20007;-44
2022/01/25 11:24:55;;;;;;;;;;;4.40;99.90;;;;;;5035084;28;20467;-45
2022/01/25 11:27:24;;;;;;;;;;;4.40;99.90;;;;;;5047524;28;19917;-45
2022/01/25 11:29:50;;;;;;;;;;;4.50;99.90;;;;;;5064691;28;19931;-45
2022/01/25 11:32:20;;;;;;;;;;;4.50;99.90;;;;;;5063566;28;19924;-47
2022/01/25 11:34:47;;;;;;;;;;;4.50;99.90;;;;;;5060796;28;19924;-47
2022/01/25 11:37:13;;;;;;;;;;;4.50;99.90;;;;;;5066546;28;20318;-44
2022/01/25 11:39:40;;;;;;;;;;;4.50;99.90;;;;;;5079339;28;19920;-46
2022/01/25 11:42:11;;;;;;;;;;;4.50;99.90;;;;;;5062166;28;19955;-45
2022/01/25 11:44:53;;;;;;;;;;;4.50;99.90;;;;;;5078470;28;19917;-44
2022/01/25 11:47:20;;;;;;;;;;;4.50;99.90;;;;;;5066238;28;19920;-44
2022/01/25 11:49:49;;;;;;;;;;;4.50;99.90;;;;;;5066518;28;19999;-46
2022/01/25 11:52:15;;;;;;;;;;;4.50;99.90;;;;;;5047420;28;20322;-45
2022/01/25 11:54:42;;;;;;;;;;;4.50;99.90;;;;;;5066101;28;19924;-45
2022/01/25 11:57:18;;;;;;;;;;;4.50;99.90;;;;;;5066820;28;19927;-46
2022/01/25 11:59:58;;;;;;;;;;;4.60;99.90;;;;;;5061377;28;19924;-45
2022/01/25 12:02:39;;;;;;;;;;;4.60;99.90;;;;;;5065848;28;19924;-46
2022/01/25 12:05:06;;;;;;;;;;;4.60;99.90;;;;;;5032106;28;20385;-44
2022/01/25 12:07:38;;;;;;;;;;;4.60;99.90;;;;;;5034280;28;19920;-46
2022/01/25 12:10:24;;;;;;;;;;;4.60;99.90;;;;;;5062815;28;20409;-45
2022/01/25 12:13:10;;;;;;;;;;;4.50;99.90;;;;;;5079622;28;19924;-45
2022/01/25 12:15:35;;;;;;;;;;;4.60;99.90;;;;;;5071579;28;19936;-45
2022/01/25 12:18:02;;;;;;;;;;;4.50;99.90;;;;;;5067732;28;20503;-45
2022/01/25 12:20:28;;;;;;;;;;;4.50;99.90;;;;;;5032224;28;19931;-46
2022/01/25 12:23:10;;;;;;;;;;;4.50;99.90;;;;;;5070885;28;19916;-48
2022/01/25 12:25:48;;;;;;;;;;;4.50;99.90;;;;;;5054375;28;19917;-45
2022/01/25 12:28:27;;;;;;;;;;;4.50;99.90;;;;;;5088220;28;19920;-46
2022/01/25 12:30:58;;;;;;;;;;;4.50;99.90;;;;;;5082465;28;20049;-45
2022/01/25 12:33:32;;;;;;;;;;;4.50;99.90;;;;;;5047369;28;19931;-47
2022/01/25 12:36:01;;;;;;;;;;;4.60;99.90;;;;;;5068647;28;19935;-46
2022/01/25 12:38:29;;;;;;;;;;;4.50;99.90;;;;;;5068786;28;19925;-44
2022/01/25 12:41:00;;;;;;;;;;;4.60;99.90;;;;;;5059746;28;19999;-45
2022/01/25 12:43:30;;;;;;;;;;;4.60;99.90;;;;;;5069022;28;20358;-45
2022/01/25 12:45:58;;;;;;;;;;;4.60;99.90;;;;;;5070883;28;19939;-45
2022/01/25 12:48:28;;;;;;;;;;;4.60;99.90;;;;;;5052749;28;20015;-46
2022/01/25 12:50:56;;;;;;;;;;;4.60;99.90;;;;;;5033798;28;20385;-45
2022/01/25 12:53:24;;;;;;;;;;;4.60;99.90;;;;;;5049411;28;19917;-44
2022/01/25 12:55:52;;;;;;;;;;;4.60;99.90;;;;;;5068437;28;19923;-45
2022/01/25 12:58:22;;;;;;;;;;;4.60;99.90;;;;;;5069433;28;19939;-45
2022/01/25 13:00:49;;;;;;;;;;;4.60;99.90;;;;;;5053377;28;20388;-45
2022/01/25 13:03:22;;;;;;;;;;;4.60;99.90;;;;;;5050637;28;19991;-45
2022/01/25 13:05:51;;;;;;;;;;;4.60;99.90;;;;;;5067952;28;19977;-46
2022/01/25 13:08:26;;;;;;;;;;;4.60;99.90;;;;;;5067574;28;19921;-45
2022/01/25 13:10:54;;;;;;;;;;;4.60;99.90;;;;;;5051783;28;19921;-44
2022/01/25 13:13:30;;;;;;;;;;;4.60;99.90;;;;;;5069029;28;20362;-44
2022/01/25 13:15:56;;;;;;;;;;;4.60;99.90;;;;;;5082196;28;19917;-44
2022/01/25 13:18:24;;;;;;;;;;;4.60;99.90;;;;;;5051474;28;19963;-46
2022/01/25 13:20:58;;;;;;;;;;;4.60;99.90;;;;;;5036948;28;20359;-46
2022/01/25 13:23:24;;;;;;;;;;;4.60;99.90;;;;;;5066920;28;19916;-45
2022/01/25 13:28:39;;;;;;;;;;;4.60;99.90;;;;;;5051942;28;20050;-45
2022/01/25 13:31:09;;;;;;;;;;;4.60;99.90;;;;;;5053208;28;19993;-45
2022/01/25 13:33:35;;;;;;;;;;;4.60;99.90;;;;;;5083594;28;20042;-46
2022/01/25 13:36:01;;;;;;;;;;;4.60;99.90;;;;;;5052217;28;19916;-46
2022/01/25 13:38:36;;;;;;;;;;;4.60;99.90;;;;;;5036229;28;20049;-44
2022/01/25 13:46:08;;;;;;;;;;;4.60;99.90;;;;;;5069582;28;19960;-48
2022/01/25 13:48:35;;;;;;;;;;;4.60;99.90;;;;;;5062075;28;20301;-46
2022/01/25 13:51:10;;;;;;;;;;;4.60;99.90;;;;;;5086270;28;19923;-46
2022/01/25 13:53:37;;;;;;;;;;;4.60;99.90;;;;;;5079561;28;19975;-45
2022/01/25 13:56:04;;;;;;;;;;;4.60;99.90;;;;;;5089316;28;19931;-46
2022/01/25 13:58:37;;;;;;;;;;;4.60;99.90;;;;;;5086424;28;19998;-46
2022/01/25 14:01:05;;;;;;;;;;;4.60;99.90;;;;;;5088755;28;19916;-46
2022/01/25 14:03:32;;;;;;;;;;;4.60;99.90;;;;;;5107148;27;20307;-46
2022/01/25 14:05:59;;;;;;;;;;;4.60;99.90;;;;;;5075039;28;19916;-46
2022/01/25 14:08:32;;;;;;;;;;;4.60;99.90;;;;;;5106636;27;20002;-46
2022/01/25 14:11:00;;;;;;;;;;;4.60;99.90;;;;;;5088147;28;19919;-46
2022/01/25 14:24:09;;;;;;;;;;;4.60;99.90;;;;;;5087054;28;19926;-46
2022/01/25 14:26:36;;;;;;;;;;;4.60;99.90;;;;;;5069784;28;19967;-45
2022/01/25 14:29:14;;;;;;;;;;;4.50;99.90;;;;;;5105405;27;20377;-45
2022/01/25 14:31:42;;;;;;;;;;;4.50;99.90;;;;;;5086668;28;19934;-47
2022/01/25 14:34:12;;;;;;;;;;;4.50;99.90;;;;;;5076673;28;19928;-46
2022/01/25 14:36:43;;;;;;;;;;;4.50;99.90;;;;;;5053809;28;19920;-47
2022/01/25 14:39:09;;;;;;;;;;;4.50;99.90;;;;;;5087856;28;19916;-46
2022/01/25 14:41:37;;;;;;;;;;;4.50;99.90;;;;;;5053435;28;19928;-45
2022/01/25 14:44:13;;;;;;;;;;;4.40;99.90;;;;;;5113413;27;19981;-45
2022/01/25 14:46:40;;;;;;;;;;;4.40;99.90;;;;;;5070966;28;20269;-47
2022/01/25 14:49:08;;;;;;;;;;;4.40;99.90;;;;;;5069930;28;20002;-45
2022/01/25 14:51:37;;;;;;;;;;;4.40;99.90;;;;;;5081546;28;20010;-45
2022/01/25 14:54:03;;;;;;;;;;;4.40;99.90;;;;;;5075687;28;19959;-42
2022/01/25 14:56:30;;;;;;;;;;;4.40;99.90;;;;;;5075351;28;20705;-42
2022/01/25 15:01:22;;;;;;;;;;;4.30;99.90;;;;;;5075753;28;19968;-43
2022/01/25 15:03:49;;;;;;;;;;;4.30;99.90;;;;;;5085958;28;19923;-43
2022/01/25 15:06:16;;;;;;;;;;;4.30;99.90;;;;;;5073891;28;19923;-42
2022/01/25 15:08:52;;;;;;;;;;;4.30;99.90;;;;;;5086064;28;19916;-42
2022/01/25 15:11:19;;;;;;;;;;;4.30;99.90;;;;;;5103904;27;19923;-42
2022/01/25 15:13:46;;;;;;;;;;;4.20;99.90;;;;;;5085391;28;20367;-44
2022/01/25 15:16:12;;;;;;;;;;;4.20;99.90;;;;;;5107497;27;20098;-42
2022/01/25 15:18:40;;;;;;;;;;;4.20;99.90;;;;;;5056461;28;19924;-44
2022/01/25 15:21:07;;;;;;;;;;;4.20;99.90;;;;;;5085720;28;20049;-42
2022/01/25 15:23:34;;;;;;;;;;;4.20;99.90;;;;;;5086958;28;19984;-42
2022/01/25 15:26:02;;;;;;;;;;;4.20;99.90;;;;;;5085782;28;20096;-43
2022/01/25 15:28:37;;;;;;;;;;;4.20;99.90;;;;;;5072658;28;20138;-45
2022/01/25 15:31:06;;;;;;;;;;;4.20;99.90;;;;;;5071800;28;19916;-43
2022/01/25 15:33:32;;;;;;;;;;;4.20;99.90;;;;;;5087014;28;19927;-45
2022/01/25 15:35:59;;;;;;;;;;;4.20;99.90;;;;;;5086320;28;19923;-44
2022/01/25 15:38:25;;;;;;;;;;;4.20;99.90;;;;;;5087989;28;20269;-44
2022/01/25 15:40:50;;;;;;;;;;;4.20;99.90;;;;;;5086415;28;19916;-43
2022/01/25 15:43:22;;;;;;;;;;;4.20;99.90;;;;;;5056629;28;19916;-42
2022/01/25 15:46:01;;;;;;;;;;;4.20;99.90;;;;;;5086245;28;20004;-44
2022/01/25 15:48:27;;;;;;;;;;;4.20;99.90;;;;;;5066507;28;19932;-42
2022/01/25 15:50:53;;;;;;;;;;;4.20;99.90;;;;;;5068176;28;19928;-42
2022/01/25 15:53:18;;;;;;;;;;;4.20;99.90;;;;;;5064410;28;19916;-42
2022/01/25 15:55:44;;;;;;;;;;;4.20;99.90;;;;;;5048178;28;19917;-44
2022/01/25 15:58:10;;;;;;;;;;;4.10;99.90;;;;;;5047046;28;19916;-43
2022/01/25 16:00:36;;;;;;;;;;;4.10;99.90;;;;;;5050192;28;20061;-43
2022/01/25 16:03:03;;;;;;;;;;;4.10;99.90;;;;;;5049459;28;20363;-43
2022/01/25 16:05:28;;;;;;;;;;;4.10;99.90;;;;;;5030965;28;19924;-42
2022/01/25 16:07:54;;;;;;;;;;;4.10;99.90;;;;;;5061177;28;19924;-43
2022/01/25 16:10:22;;;;;;;;;;;4.10;99.90;;;;;;5031202;28;19972;-42
2022/01/25 16:12:48;;;;;;;;;;;4.10;99.90;;;;;;5065609;28;19999;-45
2022/01/25 16:15:14;;;;;;;;;;;4.10;99.90;;;;;;5066427;28;19958;-43
2022/01/25 16:17:40;;;;;;;;;;;4.10;99.90;;;;;;5046898;28;20005;-42
2022/01/25 16:20:07;;;;;;;;;;;4.00;99.90;;;;;;5050169;28;19932;-42
2022/01/25 16:22:33;;;;;;;;;;;4.00;99.90;;;;;;5049461;28;19994;-45
2022/01/25 16:24:59;;;;;;;;;;;4.00;99.90;;;;;;5067967;28;19956;-43
2022/01/25 16:27:25;;;;;;;;;;;4.00;99.90;;;;;;5066530;28;19916;-42
2022/01/25 16:29:50;;;;;;;;;;;4.00;99.90;;;;;;5033419;28;19924;-42
2022/01/25 16:32:20;;;;;;;;;;;4.00;99.90;;;;;;5048128;28;19923;-43
2022/01/25 16:34:46;;;;;;;;;;;4.00;99.90;;;;;;5064637;28;19956;-43
2022/01/25 16:37:13;;;;;;;;;;;4.00;99.90;;;;;;5049018;28;20009;-44
2022/01/25 16:39:39;;;;;;;;;;;4.00;99.90;;;;;;5033622;28;20350;-43
2022/01/25 16:42:05;;;;;;;;;;;4.00;99.90;;;;;;5049697;28;19991;-43
2022/01/25 16:44:31;;;;;;;;;;;4.00;99.90;;;;;;5063748;28;20141;-43